Time;durP1;ratioP1;P1;durP2;ratioP2;P2;SDS_P1;SDS_P2;PMS_P1;PMS_P2;Temp;Humidity;BMP_temperature;BMP_pressure;BME280_temperature;BME280_humidity;BME280_pressure;Samples;Min_cycle;Max_cycle;Signal;HPM_P1;HPM_P2
2022/04/14 00:01:54;;;;;;;39.97;19.90;;;11.00;1.00;;;;;;5072483;28;21153;-73
2022/04/14 00:04:21;;;;;;;38.00;20.73;;;11.00;1.00;;;;;;5072665;28;20271;-73
2022/04/14 00:06:49;;;;;;;35.23;20.33;;;10.90;1.00;;;;;;5072389;28;20201;-72
2022/04/14 00:09:16;;;;;;;38.97;21.53;;;10.90;1.00;;;;;;5072775;28;20327;-73
2022/04/14 00:11:43;;;;;;;31.20;17.63;;;10.30;1.00;;;;;;5072665;28;20202;-73
2022/04/14 00:14:10;;;;;;;28.57;19.63;;;10.80;1.00;;;;;;5072818;28;20210;-73
2022/04/14 00:16:37;;;;;;;33.00;20.70;;;10.80;1.00;;;;;;5073143;28;20202;-72
2022/04/14 00:19:05;;;;;;;32.33;20.67;;;10.80;1.00;;;;;;5072055;28;20206;-74
2022/04/14 00:21:32;;;;;;;35.83;21.87;;;10.80;1.00;;;;;;5072525;28;20251;-75
2022/04/14 00:23:59;;;;;;;31.57;20.90;;;10.70;1.00;;;;;;5071967;28;20206;-73
2022/04/14 00:26:26;;;;;;;24.83;18.50;;;10.60;1.00;;;;;;5072312;28;20198;-73
2022/04/14 00:28:53;;;;;;;34.80;19.40;;;10.30;55.80;;;;;;5071692;28;20202;-73
2022/04/14 00:31:20;;;;;;;43.07;22.87;;;10.40;1.00;;;;;;5072138;28;20205;-71
2022/04/14 00:33:47;;;;;;;34.53;23.73;;;10.30;1.00;;;;;;5071634;28;20224;-72
2022/04/14 00:36:15;;;;;;;40.87;23.33;;;10.30;1.00;;;;;;5058830;28;20233;-72
2022/04/14 00:38:42;;;;;;;35.63;19.97;;;10.50;1.00;;;;;;5052094;28;20203;-72
2022/04/14 00:41:09;;;;;;;26.30;16.03;;;11.40;99.90;;;;;;5052220;28;20249;-69
2022/04/14 00:43:38;;;;;;;33.20;17.70;;;10.40;1.00;;;;;;5052225;28;20272;-80
2022/04/14 00:46:06;;;;;;;23.50;15.30;;;10.20;1.00;;;;;;5050519;28;20274;-77
2022/04/14 00:48:33;;;;;;;45.50;19.47;;;10.40;1.00;;;;;;5051845;28;20203;-71
2022/04/14 00:51:01;;;;;;;34.90;16.53;;;10.10;1.00;;;;;;5051572;28;20199;-77
2022/04/14 00:53:29;;;;;;;32.60;17.50;;;10.10;1.00;;;;;;5051922;28;20285;-79
2022/04/14 00:55:57;;;;;;;35.93;18.10;;;10.20;1.00;;;;;;5051144;28;20253;-76
2022/04/14 00:58:24;;;;;;;17.57;15.33;;;11.50;99.90;;;;;;5051483;28;20744;-73
2022/04/14 01:00:52;;;;;;;23.23;15.43;;;11.00;99.90;;;;;;5051206;28;20207;-72
2022/04/14 01:03:19;;;;;;;19.00;16.93;;;10.60;1.00;;;;;;5051754;28;20210;-76
2022/04/14 01:05:48;;;;;;;23.57;18.43;;;10.70;1.00;;;;;;5051422;28;20239;-80
2022/04/14 01:08:17;;;;;;;20.07;16.47;;;10.80;1.00;;;;;;5052074;28;20203;-76
2022/04/14 01:10:48;;;;;;;25.20;18.07;;;10.90;1.00;;;;;;5051540;28;20210;-72
2022/04/14 01:13:15;;;;;;;37.60;17.37;;;10.90;1.00;;;;;;5051638;28;20202;-80
2022/04/14 01:15:43;;;;;;;42.50;17.30;;;11.00;1.00;;;;;;5051619;28;20226;-81
2022/04/14 01:18:10;;;;;;;38.10;17.73;;;11.00;1.00;;;;;;5051680;28;20203;-73
2022/04/14 01:20:38;;;;;;;45.80;18.63;;;11.00;1.00;;;;;;5052016;28;20199;-71
2022/04/14 01:23:06;;;;;;;30.67;16.27;;;10.90;1.00;;;;;;5050868;28;20667;-79
2022/04/14 01:25:34;;;;;;;31.50;15.47;;;10.90;1.00;;;;;;5051295;28;20570;-77
2022/04/14 01:28:02;;;;;;;25.00;12.40;;;10.30;18.70;;;;;;5050961;28;20256;-72
2022/04/14 01:30:29;;;;;;;31.17;13.77;;;11.40;99.90;;;;;;5050919;28;20207;-72
2022/04/14 01:32:56;;;;;;;33.70;16.17;;;10.60;1.00;;;;;;5050812;28;20207;-73
2022/04/14 01:35:24;;;;;;;22.70;13.17;;;10.50;1.00;;;;;;5051002;28;20208;-72
2022/04/14 01:37:51;;;;;;;24.60;15.00;;;10.50;1.00;;;;;;5050640;28;20276;-72
2022/04/14 01:40:18;;;;;;;21.40;14.37;;;10.60;1.00;;;;;;5051099;28;20199;-75
2022/04/14 01:42:47;;;;;;;27.03;15.90;;;10.60;1.00;;;;;;5050767;28;20206;-72
2022/04/14 01:45:14;;;;;;;21.63;15.73;;;10.60;1.00;;;;;;5050380;28;20223;-72
2022/04/14 01:47:42;;;;;;;27.50;16.77;;;10.60;1.00;;;;;;5051004;28;20260;-72
2022/04/14 01:50:10;;;;;;;33.17;16.10;;;10.70;1.00;;;;;;5051107;28;20256;-80
2022/04/14 01:52:37;;;;;;;21.47;16.23;;;10.80;1.00;;;;;;5051387;28;20260;-72
2022/04/14 01:55:05;;;;;;;32.43;18.53;;;10.70;1.00;;;;;;5050550;28;20252;-75
2022/04/14 01:57:32;;;;;;;31.90;20.67;;;10.70;1.00;;;;;;5050736;28;20214;-74
2022/04/14 02:00:01;;;;;;;30.87;21.03;;;10.70;1.00;;;;;;5050403;28;20203;-73
2022/04/14 02:02:29;;;;;;;34.40;22.27;;;10.60;1.00;;;;;;5050730;28;20198;-74
2022/04/14 02:04:56;;;;;;;40.80;19.43;;;10.50;1.00;;;;;;5050585;28;20284;-74
2022/04/14 02:07:22;;;;;;;36.97;20.00;;;10.40;1.00;;;;;;5051261;28;20200;-76
2022/04/14 02:09:49;;;;;;;30.63;18.67;;;10.40;1.00;;;;;;5050924;28;20210;-81
2022/04/14 02:12:16;;;;;;;38.03;19.90;;;10.50;1.00;;;;;;5050869;28;20225;-77
2022/04/14 02:14:44;;;;;;;41.37;17.70;;;10.50;1.00;;;;;;5050116;28;20203;-73
2022/04/14 02:17:12;;;;;;;39.87;17.43;;;10.40;1.00;;;;;;5050635;28;20294;-73
2022/04/14 02:19:39;;;;;;;30.97;16.57;;;10.40;1.00;;;;;;5050775;28;20207;-72
2022/04/14 02:22:07;;;;;;;33.63;15.60;;;10.50;1.00;;;;;;5050412;28;20203;-77
2022/04/14 02:24:34;;;;;;;28.00;15.90;;;10.60;1.00;;;;;;5050902;28;20203;-78
2022/04/14 02:27:01;;;;;;;26.70;13.77;;;10.50;1.00;;;;;;5050273;28;20242;-79
2022/04/14 02:29:28;;;;;;;33.67;13.77;;;10.50;1.00;;;;;;5050333;28;20207;-75
2022/04/14 02:31:57;;;;;;;26.03;14.27;;;10.50;1.00;;;;;;5050036;28;20207;-74
2022/04/14 02:34:27;;;;;;;26.90;12.80;;;10.70;1.00;;;;;;5050407;28;20203;-76
2022/04/14 02:36:54;;;;;;;28.03;12.30;;;10.70;1.00;;;;;;5050333;28;20209;-78
2022/04/14 02:39:21;;;;;;;26.03;11.17;;;10.70;1.00;;;;;;5050537;28;20741;-76
2022/04/14 02:41:48;;;;;;;29.30;12.87;;;10.70;1.00;;;;;;5049966;28;20578;-76
2022/04/14 02:44:15;;;;;;;24.60;11.93;;;10.70;1.00;;;;;;5050322;28;20199;-80
2022/04/14 02:46:42;;;;;;;18.20;10.53;;;10.70;1.00;;;;;;5050861;28;20640;-79
2022/04/14 02:49:09;;;;;;;20.47;11.67;;;10.70;1.00;;;;;;5051113;28;20264;-80
2022/04/14 02:51:37;;;;;;;17.07;11.03;;;10.70;1.00;;;;;;5050930;28;20199;-81
2022/04/14 02:54:05;;;;;;;25.20;11.10;;;10.60;1.00;;;;;;5050158;28;20206;-76
2022/04/14 02:56:32;;;;;;;20.37;11.60;;;10.70;1.00;;;;;;5050075;28;20210;-74
2022/04/14 02:58:58;;;;;;;15.33;9.50;;;10.60;1.00;;;;;;5049643;28;20698;-77
2022/04/14 03:01:25;;;;;;;12.60;8.37;;;10.50;1.00;;;;;;5050404;28;20663;-78
2022/04/14 03:03:52;;;;;;;16.37;9.27;;;10.40;1.00;;;;;;5050024;28;20248;-76
2022/04/14 03:06:19;;;;;;;12.87;9.03;;;10.50;1.00;;;;;;5050139;28;20235;-76
2022/04/14 03:08:48;;;;;;;13.57;8.83;;;10.50;1.00;;;;;;5051651;28;20207;-77
2022/04/14 03:11:15;;;;;;;16.90;9.07;;;10.50;1.00;;;;;;5053564;28;20257;-77
2022/04/14 03:13:42;;;;;;;15.17;9.43;;;10.40;1.00;;;;;;5053732;28;20712;-74
2022/04/14 03:16:09;;;;;;;20.00;9.90;;;10.30;1.00;;;;;;5054086;28;20627;-76
2022/04/14 03:18:36;;;;;;;16.00;8.47;;;10.20;1.00;;;;;;5076718;28;20197;-76
2022/04/14 03:21:03;;;;;;;19.40;10.80;;;10.30;1.00;;;;;;5076870;28;20206;-75
2022/04/14 03:23:30;;;;;;;15.37;9.87;;;10.30;1.00;;;;;;5073763;28;20202;-78
2022/04/14 03:25:59;;;;;;;11.80;9.37;;;10.20;1.00;;;;;;5072733;28;20276;-74
2022/04/14 03:28:26;;;;;;;16.37;10.00;;;10.30;1.00;;;;;;5071818;28;20198;-76
2022/04/14 03:30:53;;;;;;;14.77;9.27;;;10.30;1.00;;;;;;5072051;28;20206;-76
2022/04/14 03:33:20;;;;;;;17.77;8.60;;;10.30;1.00;;;;;;5073235;28;20210;-74
2022/04/14 03:35:46;;;;;;;10.00;7.77;;;10.20;1.00;;;;;;5072973;28;20264;-76
2022/04/14 03:38:13;;;;;;;13.50;8.43;;;10.20;1.00;;;;;;5073243;28;20211;-74
2022/04/14 03:40:40;;;;;;;12.27;9.63;;;10.30;1.00;;;;;;5073173;28;20592;-75
2022/04/14 03:43:09;;;;;;;11.17;9.03;;;10.30;1.00;;;;;;5073242;28;20255;-74
2022/04/14 03:45:36;;;;;;;14.27;9.20;;;10.30;1.00;;;;;;5073254;28;20230;-74
2022/04/14 03:48:03;;;;;;;15.60;9.33;;;10.40;1.00;;;;;;5072652;28;20667;-73
2022/04/14 03:50:30;;;;;;;23.17;10.90;;;10.40;1.00;;;;;;5073119;28;20206;-73
2022/04/14 03:52:57;;;;;;;14.43;10.53;;;10.40;1.00;;;;;;5072459;28;20248;-72
2022/04/14 03:55:24;;;;;;;15.47;10.07;;;10.50;1.00;;;;;;5072823;28;20267;-72
2022/04/14 03:57:51;;;;;;;12.20;9.73;;;10.40;1.00;;;;;;5072319;28;20752;-74
2022/04/14 04:00:20;;;;;;;14.77;9.80;;;10.50;1.00;;;;;;5073030;28;20619;-74
2022/04/14 04:02:47;;;;;;;12.77;9.63;;;10.50;1.00;;;;;;5072596;28;20206;-77
2022/04/14 04:05:14;;;;;;;11.83;9.90;;;10.40;1.00;;;;;;5072783;28;20202;-78
2022/04/14 04:07:41;;;;;;;17.57;11.43;;;10.40;1.00;;;;;;5072571;28;20672;-75
2022/04/14 04:10:09;;;;;;;22.80;11.17;;;10.50;1.00;;;;;;5072785;28;20739;-74
2022/04/14 04:12:36;;;;;;;18.43;11.23;;;10.50;1.00;;;;;;5072862;28;20749;-77
2022/04/14 04:15:03;;;;;;;19.57;10.43;;;10.50;1.00;;;;;;5072265;28;20677;-74
2022/04/14 04:17:32;;;;;;;21.37;10.93;;;10.50;1.00;;;;;;5072627;28;20256;-79
2022/04/14 04:19:58;;;;;;;19.40;11.70;;;10.40;1.00;;;;;;5071851;28;20263;-76
2022/04/14 04:22:25;;;;;;;20.17;12.33;;;10.40;1.00;;;;;;5072527;28;20206;-74
2022/04/14 04:24:52;;;;;;;18.07;10.77;;;10.40;1.00;;;;;;5072025;28;20615;-75
2022/04/14 04:27:19;;;;;;;25.47;13.60;;;10.50;1.00;;;;;;5072261;28;20705;-74
2022/04/14 04:29:46;;;;;;;28.63;12.60;;;10.60;1.00;;;;;;5071846;28;20202;-74
2022/04/14 04:32:13;;;;;;;17.20;9.83;;;10.50;1.00;;;;;;5072144;28;20210;-75
2022/04/14 04:34:41;;;;;;;17.30;9.77;;;10.50;1.00;;;;;;5072412;28;20206;-76
2022/04/14 04:37:08;;;;;;;32.60;11.03;;;10.50;1.00;;;;;;5072632;28;20206;-74
2022/04/14 04:39:36;;;;;;;33.23;10.53;;;10.40;1.00;;;;;;5072065;28;20259;-75
2022/04/14 04:42:03;;;;;;;20.63;9.80;;;10.40;1.00;;;;;;5071779;28;20207;-74
2022/04/14 04:44:30;;;;;;;17.30;9.53;;;10.30;1.00;;;;;;5071930;28;20201;-74
2022/04/14 04:46:57;;;;;;;25.90;9.83;;;10.40;1.00;;;;;;5071472;28;20230;-73
2022/04/14 04:49:24;;;;;;;19.80;10.17;;;10.30;1.00;;;;;;5071775;28;20267;-73
2022/04/14 04:51:52;;;;;;;14.57;9.57;;;10.30;1.00;;;;;;5071686;28;20198;-74
2022/04/14 04:54:19;;;;;;;19.43;9.80;;;10.20;1.00;;;;;;5071660;28;20256;-73
2022/04/14 04:56:46;;;;;;;17.30;10.20;;;10.20;1.00;;;;;;5070990;28;20198;-74
2022/04/14 04:59:13;;;;;;;21.50;9.17;;;10.30;1.00;;;;;;5071284;28;20210;-73
2022/04/14 05:01:40;;;;;;;22.27;10.43;;;10.30;1.00;;;;;;5071571;28;20198;-73
2022/04/14 05:04:09;;;;;;;20.37;9.03;;;10.30;1.00;;;;;;5071153;28;20199;-73
2022/04/14 05:06:36;;;;;;;14.83;9.03;;;10.20;1.00;;;;;;5071513;28;20709;-73
2022/04/14 05:09:04;;;;;;;16.43;8.60;;;10.30;1.00;;;;;;5071066;28;20676;-76
2022/04/14 05:11:31;;;;;;;14.50;9.10;;;10.40;1.00;;;;;;5071511;28;20264;-78
2022/04/14 05:13:58;;;;;;;13.60;9.20;;;10.40;1.00;;;;;;5070973;28;20214;-76
2022/04/14 05:16:25;;;;;;;14.57;9.57;;;10.50;1.00;;;;;;5071283;28;20202;-80
2022/04/14 05:18:52;;;;;;;13.43;9.53;;;10.50;1.00;;;;;;5071013;28;20210;-74
2022/04/14 05:21:19;;;;;;;18.77;10.77;;;10.60;1.00;;;;;;5071299;28;20202;-77
2022/04/14 05:23:46;;;;;;;23.00;11.27;;;10.60;1.00;;;;;;5070962;28;20206;-75
2022/04/14 05:26:15;;;;;;;14.53;8.97;;;10.60;1.00;;;;;;5071045;28;20226;-77
2022/04/14 05:28:41;;;;;;;14.63;9.93;;;10.60;1.00;;;;;;5071219;28;20283;-73
2022/04/14 05:31:08;;;;;;;17.53;9.10;;;10.70;1.00;;;;;;5071033;28;20565;-79
2022/04/14 05:33:35;;;;;;;18.00;10.23;;;10.50;1.00;;;;;;5071046;28;20672;-78
2022/04/14 05:36:02;;;;;;;14.00;9.87;;;10.50;1.00;;;;;;5070431;28;20681;-77
2022/04/14 05:38:29;;;;;;;11.63;9.23;;;10.60;1.00;;;;;;5070962;28;20209;-77
2022/04/14 05:40:56;;;;;;;12.20;8.27;;;10.60;1.00;;;;;;5070784;28;20202;-79
2022/04/14 05:43:27;;;;;;;17.77;8.07;;;10.60;1.00;;;;;;5070793;28;20259;-73
2022/04/14 05:45:55;;;;;;;15.83;8.97;;;10.60;1.00;;;;;;5070358;28;20331;-78
2022/04/14 05:48:22;;;;;;;10.47;8.23;;;10.60;1.00;;;;;;5070760;28;20240;-73
2022/04/14 05:50:50;;;;;;;11.27;8.23;;;10.70;1.00;;;;;;5070323;28;20666;-74
2022/04/14 05:53:18;;;;;;;17.67;8.23;;;10.80;1.00;;;;;;5070888;28;20237;-73
2022/04/14 05:55:47;;;;;;;14.67;8.10;;;10.80;1.00;;;;;;5070523;28;20251;-72
2022/04/14 05:58:14;;;;;;;14.93;8.53;;;10.70;1.00;;;;;;5070677;28;20674;-73
2022/04/14 06:00:42;;;;;;;15.03;8.80;;;10.70;1.00;;;;;;5070428;28;20298;-76
2022/04/14 06:03:10;;;;;;;16.03;8.83;;;10.70;1.00;;;;;;5071292;28;20210;-74
2022/04/14 06:05:37;;;;;;;20.03;9.17;;;10.70;1.00;;;;;;5070706;28;20198;-74
2022/04/14 06:08:04;;;;;;;20.77;8.63;;;10.70;1.00;;;;;;5070277;28;20640;-78
2022/04/14 06:10:32;;;;;;;14.63;8.40;;;10.70;1.00;;;;;;5070695;28;20210;-78
2022/04/14 06:12:59;;;;;;;27.20;10.27;;;10.80;1.00;;;;;;5070560;28;20580;-79
2022/04/14 06:15:27;;;;;;;13.17;7.90;;;10.80;1.00;;;;;;5070993;28;20206;-76
2022/04/14 06:17:56;;;;;;;18.97;8.67;;;10.90;1.00;;;;;;5070530;28;20206;-77
2022/04/14 06:20:23;;;;;;;20.87;8.53;;;10.90;1.00;;;;;;5070656;28;20210;-77
2022/04/14 06:22:50;;;;;;;19.27;8.77;;;10.90;1.00;;;;;;5070521;28;20255;-78
2022/04/14 06:25:22;;;;;;;30.27;9.03;;;10.90;1.00;;;;;;5070694;28;20206;-83
2022/04/14 06:27:51;;;;;;;24.80;9.87;;;10.90;1.00;;;;;;5070519;28;20238;-75
2022/04/14 06:30:19;;;;;;;19.03;9.87;;;10.90;1.00;;;;;;5070395;28;20576;-75
2022/04/14 06:32:57;;;;;;;20.83;9.47;;;11.00;1.00;;;;;;5070306;28;20202;-73
2022/04/14 06:35:25;;;;;;;26.70;10.27;;;11.20;1.00;;;;;;5070371;28;20202;-75
2022/04/14 06:37:52;;;;;;;16.83;9.13;;;11.20;1.00;;;;;;5070093;28;20210;-74
2022/04/14 06:40:19;;;;;;;20.30;9.57;;;11.20;1.00;;;;;;5070521;28;20202;-75
2022/04/14 06:42:46;;;;;;;16.03;9.30;;;11.30;1.00;;;;;;5070317;28;20199;-72
2022/04/14 06:45:13;;;;;;;16.73;10.10;;;11.50;1.00;;;;;;5074101;28;20670;-74
2022/04/14 06:47:41;;;;;;;14.40;9.70;;;11.30;1.00;;;;;;5074493;28;20705;-74
2022/04/14 06:50:10;;;;;;;19.73;10.57;;;11.50;1.00;;;;;;5074208;28;20202;-82
2022/04/14 06:52:38;;;;;;;17.03;10.93;;;11.50;1.00;;;;;;5074842;28;20255;-74
2022/04/14 06:55:06;;;;;;;18.10;8.63;;;11.60;1.00;;;;;;5074393;28;20202;-82
2022/04/14 06:57:34;;;;;;;14.30;8.40;;;11.60;1.00;;;;;;5074497;28;20647;-84
2022/04/14 07:00:01;;;;;;;21.27;9.82;;;11.70;1.00;;;;;;5074248;28;20202;-88
2022/04/14 07:02:29;;;;;;;14.80;9.60;;;11.70;1.00;;;;;;5075077;28;20198;-89
2022/04/14 07:04:56;;;;;;;16.37;10.33;;;11.70;99.90;;;;;;5074062;28;20202;-87
2022/04/14 07:07:25;;;;;;;10.37;8.47;;;11.70;99.90;;;;;;5074951;28;20328;-88
2022/04/14 07:09:52;;;;;;;14.53;10.43;;;11.70;99.90;;;;;;5074624;28;20275;-85
2022/04/14 07:12:19;;;;;;;18.03;10.67;;;11.80;99.90;;;;;;5074564;28;20229;-86
2022/04/14 07:14:46;;;;;;;17.73;9.93;;;11.80;99.90;;;;;;5074393;28;20202;-90
2022/04/14 07:17:13;;;;;;;15.02;9.65;;;11.80;99.90;;;;;;5074522;28;20210;-87
2022/04/14 07:19:40;;;;;;;11.53;9.43;;;11.80;99.90;;;;;;5075210;28;20199;-88
2022/04/14 07:22:07;;;;;;;13.33;10.33;;;11.90;99.90;;;;;;5074711;28;20198;-76
2022/04/14 07:24:35;;;;;;;13.27;10.00;;;12.00;99.90;;;;;;5066126;28;20203;-71
2022/04/14 07:27:02;;;;;;;12.95;9.32;;;11.80;99.90;;;;;;5071571;28;20229;-71
2022/04/14 07:29:29;;;;;;;12.00;9.57;;;11.90;99.90;;;;;;5074067;28;20256;-77
2022/04/14 07:31:56;;;;;;;11.87;9.53;;;12.00;99.90;;;;;;5071524;28;20218;-73
2022/04/14 07:34:23;;;;;;;15.90;9.15;;;11.90;99.90;;;;;;5072796;28;20209;-74
2022/04/14 07:36:50;;;;;;;11.32;8.93;;;12.10;99.90;;;;;;5058927;28;20220;-71
2022/04/14 07:39:17;;;;;;;12.33;8.27;;;12.00;99.90;;;;;;5072781;28;20206;-73
2022/04/14 07:41:45;;;;;;;10.73;7.47;;;12.10;99.90;;;;;;5070995;28;20198;-75
2022/04/14 07:44:12;;;;;;;13.23;8.48;;;12.50;99.90;;;;;;5064533;28;20206;-74
2022/04/14 07:46:39;;;;;;;10.05;8.02;;;12.70;99.90;;;;;;5072478;28;20206;-74
2022/04/14 07:49:06;;;;;;;11.73;7.60;;;12.60;99.90;;;;;;5062344;28;20213;-75
2022/04/14 07:51:33;;;;;;;12.07;8.18;;;12.70;99.90;;;;;;5059997;28;20210;-74
2022/04/14 07:54:00;;;;;;;10.50;8.45;;;12.70;99.90;;;;;;5052156;28;20210;-72
2022/04/14 07:56:27;;;;;;;10.05;8.45;;;12.50;99.90;;;;;;5051824;28;20665;-74
2022/04/14 07:58:56;;;;;;;11.13;8.05;;;12.30;99.90;;;;;;5051832;28;20268;-75
2022/04/14 08:01:24;;;;;;;9.88;7.82;;;12.90;99.90;;;;;;5056716;28;20260;-75
2022/04/14 08:03:52;;;;;;;11.25;8.60;;;12.60;1.00;;;;;;5063138;28;20203;-75
2022/04/14 08:06:19;;;;;;;10.73;9.25;;;12.50;1.00;;;;;;5065710;28;20631;-74
2022/04/14 08:08:46;;;;;;;12.75;10.13;;;12.60;99.90;;;;;;5068805;28;20234;-74
2022/04/14 08:11:13;;;;;;;14.80;11.43;;;12.60;99.90;;;;;;5069656;28;20206;-76
2022/04/14 08:13:41;;;;;;;14.50;10.95;;;12.90;99.90;;;;;;5071065;28;20263;-75
2022/04/14 08:16:10;;;;;;;15.85;11.40;;;12.80;99.90;;;;;;5067050;28;20198;-73
2022/04/14 08:18:37;;;;;;;16.48;11.27;;;12.80;99.90;;;;;;5072864;28;20292;-72
2022/04/14 08:21:05;;;;;;;14.95;11.35;;;12.50;99.90;;;;;;5072076;28;20256;-72
2022/04/14 08:23:32;;;;;;;15.43;12.00;;;12.60;99.90;;;;;;5071483;28;20214;-72
2022/04/14 08:26:01;;;;;;;18.98;13.73;;;12.70;99.90;;;;;;5071695;28;20214;-73
2022/04/14 08:28:28;;;;;;;15.30;12.30;;;12.70;99.90;;;;;;5072058;28;20725;-72
2022/04/14 08:30:56;;;;;;;16.08;13.73;;;12.60;99.90;;;;;;5070952;28;20203;-72
2022/04/14 08:33:25;;;;;;;16.67;12.35;;;12.60;99.90;;;;;;5071878;28;20221;-73
2022/04/14 08:35:54;;;;;;;15.70;12.70;;;12.60;99.90;;;;;;5071786;28;20252;-73
2022/04/14 08:38:22;;;;;;;15.60;13.40;;;13.00;99.90;;;;;;5060151;28;20210;-73
2022/04/14 08:40:58;;;;;;;17.60;12.90;;;12.90;99.90;;;;;;5059002;28;20213;-73
2022/04/14 08:43:32;;;;;;;16.02;13.32;;;13.10;99.90;;;;;;5068178;28;20238;-73
2022/04/14 08:46:01;;;;;;;14.43;12.60;;;12.70;99.90;;;;;;5067209;28;20691;-74
2022/04/14 08:48:30;;;;;;;20.85;12.82;;;13.00;99.90;;;;;;5063483;28;20242;-72
2022/04/14 08:50:57;;;;;;;15.73;12.88;;;13.40;99.90;;;;;;5069503;28;20206;-72
2022/04/14 08:53:27;;;;;;;16.20;12.32;;;13.50;99.90;;;;;;5068540;28;20244;-73
2022/04/14 08:55:56;;;;;;;18.02;13.48;;;13.20;99.90;;;;;;5069672;28;20233;-74
2022/04/14 08:58:26;;;;;;;14.43;13.07;;;13.80;99.90;;;;;;5068738;28;20216;-73
2022/04/14 09:00:55;;;;;;;14.00;12.50;;;14.10;99.90;;;;;;5070241;28;20237;-71
2022/04/14 09:03:25;;;;;;;15.02;13.20;;;14.50;99.90;;;;;;5064057;28;20225;-73
2022/04/14 09:05:55;;;;;;;15.30;12.93;;;14.60;99.90;;;;;;5068493;28;20210;-74
2022/04/14 09:08:22;;;;;;;16.60;13.02;;;14.50;99.90;;;;;;5070507;28;20230;-74
2022/04/14 09:10:50;;;;;;;17.52;13.48;;;14.50;99.90;;;;;;5069851;28;20677;-77
2022/04/14 09:13:18;;;;;;;14.20;12.23;;;15.70;1.00;;;;;;5070511;28;20214;-75
2022/04/14 09:15:46;;;;;;;19.23;13.90;;;15.20;99.90;;;;;;5057109;28;20207;-75
2022/04/14 09:18:14;;;;;;;16.15;14.02;;;14.60;99.90;;;;;;5070816;28;20214;-75
2022/04/14 09:20:43;;;;;;;18.77;14.02;;;14.80;99.90;;;;;;5057681;28;20198;-74
2022/04/14 09:23:18;;;;;;;19.95;14.55;;;15.00;99.90;;;;;;5070987;28;20213;-75
2022/04/14 09:25:46;;;;;;;18.25;14.65;;;16.00;99.90;;;;;;5069723;28;20588;-75
2022/04/14 09:28:14;;;;;;;14.15;12.68;;;17.60;99.90;;;;;;5070394;28;20313;-76
2022/04/14 09:30:57;;;;;;;15.82;13.07;;;20.10;99.90;;;;;;5056114;28;20625;-75
2022/04/14 09:33:24;;;;;;;15.45;13.50;;;19.00;99.90;;;;;;5069357;28;20209;-75
2022/04/14 09:36:09;;;;;;;16.58;12.60;;;17.70;99.90;;;;;;5070341;28;20198;-76
2022/04/14 09:39:07;;;;;;;15.57;13.95;;;16.50;99.90;;;;;;5068923;28;20268;-75
2022/04/14 09:41:37;;;;;;;18.58;14.07;;;16.60;99.90;;;;;;5023073;28;20780;-75
2022/04/14 09:44:06;;;;;;;16.30;12.98;;;16.20;99.90;;;;;;5060798;28;20263;-78
2022/04/14 09:46:33;;;;;;;14.88;13.07;;;16.70;99.90;;;;;;5069940;28;20206;-79
2022/04/14 09:49:05;;;;;;;17.27;12.48;;;17.00;1.00;;;;;;5069674;28;20287;-77
2022/04/14 09:51:33;;;;;;;16.45;14.38;;;16.00;1.00;;;;;;5069045;28;20210;-74
2022/04/14 09:54:04;;;;;;;15.73;11.40;;;16.10;1.00;;;;;;5070006;28;20670;-76
2022/04/14 09:56:47;;;;;;;15.65;12.13;;;17.70;99.90;;;;;;5070336;28;20293;-76
2022/04/14 09:59:16;;;;;;;14.88;10.07;;;20.90;16.90;;;;;;5065072;28;20229;-74
2022/04/14 10:01:44;;;;;;;17.02;10.45;;;;;;;;;;5065692;28;20745;-73
2022/04/14 10:04:32;;;;;;;14.75;12.40;;;22.80;99.90;;;;;;5061572;28;20210;-73
2022/04/14 10:07:19;;;;;;;12.98;11.70;;;25.30;99.90;;;;;;5051963;28;20210;-73
2022/04/14 10:09:48;;;;;;;12.43;9.98;;;25.70;99.90;;;;;;5059195;28;20637;-75
2022/04/14 10:12:30;;;;;;;18.92;12.70;;;23.80;99.90;;;;;;5069804;28;20236;-76
2022/04/14 10:15:09;;;;;;;13.80;11.80;;;23.20;99.90;;;;;;5069080;28;20217;-74
2022/04/14 10:17:38;;;;;;;14.02;10.90;;;20.40;99.90;;;;;;5065042;28;20213;-74
2022/04/14 10:20:07;;;;;;;10.82;8.63;;;;;;;;;;5073633;28;20210;-72
2022/04/14 10:22:35;;;;;;;12.73;10.32;;;19.90;99.90;;;;;;5073329;28;20209;-72
2022/04/14 10:25:03;;;;;;;13.27;8.18;;;19.80;99.90;;;;;;5073629;28;20292;-73
2022/04/14 10:27:33;;;;;;;13.60;7.47;;;19.20;99.90;;;;;;5072837;28;20322;-71
2022/04/14 10:30:00;;;;;;;7.88;6.68;;;20.20;99.90;;;;;;5063355;28;20252;-72
2022/04/14 10:32:28;;;;;;;13.00;7.07;;;23.40;1.00;;;;;;5072490;28;20206;-72
2022/04/14 10:34:56;;;;;;;11.45;8.35;;;21.80;99.90;;;;;;5068626;28;20768;-73
2022/04/14 10:37:31;;;;;;;17.58;7.43;;;19.40;99.90;;;;;;5073676;28;20550;-74
2022/04/14 10:39:58;;;;;;;8.98;6.97;;;18.70;99.90;;;;;;5072034;28;20259;-74
2022/04/14 10:42:27;;;;;;;8.20;7.13;;;18.50;99.90;;;;;;5071578;28;20560;-75
2022/04/14 10:44:56;;;;;;;8.38;7.15;;;18.30;99.90;;;;;;5073473;28;20210;-76
2022/04/14 10:47:52;;;;;;;11.13;6.55;;;18.20;99.90;;;;;;5061341;28;20207;-74
2022/04/14 10:50:20;;;;;;;9.93;7.35;;;18.10;99.90;;;;;;5072950;28;20206;-75
2022/04/14 10:53:05;;;;;;;9.10;4.80;;;18.30;99.90;;;;;;5073358;28;20289;-75
2022/04/14 10:55:44;;;;;;;7.15;6.10;;;18.40;99.90;;;;;;5058460;28;20207;-75
2022/04/14 10:58:56;;;;;;;9.25;4.38;;;18.50;99.90;;;;;;5064711;28;20213;-74
2022/04/14 11:02:02;;;;;;;6.25;4.63;;;18.40;99.90;;;;;;5045757;28;20232;-76
2022/04/14 11:04:32;;;;;;;10.95;5.63;;;18.10;99.90;;;;;;5072525;28;20228;-77
2022/04/14 11:07:01;;;;;;;7.32;5.95;;;18.10;99.90;;;;;;5072007;28;20210;-74
2022/04/14 11:09:59;;;;;;;13.45;6.47;;;17.60;99.90;;;;;;5071649;28;20233;-74
2022/04/14 11:12:29;;;;;;;9.13;5.65;;;17.70;99.90;;;;;;5063740;28;20584;-77
2022/04/14 11:14:58;;;;;;;10.60;6.63;;;17.70;99.90;;;;;;5066721;28;20214;-74
2022/04/14 11:17:58;;;;;;;9.95;5.97;;;17.80;99.90;;;;;;5073892;28;20202;-72
2022/04/14 11:20:52;;;;;;;8.10;5.95;;;17.70;99.90;;;;;;5073545;28;20210;-75
2022/04/14 11:23:24;;;;;;;11.95;5.72;;;18.10;99.90;;;;;;5072016;28;20214;-73
2022/04/14 11:25:53;;;;;;;8.75;4.65;;;18.40;99.90;;;;;;5072982;28;20588;-75
2022/04/14 11:28:24;;;;;;;11.00;4.43;;;18.00;99.90;;;;;;5073122;28;20230;-75
2022/04/14 11:30:52;;;;;;;7.90;3.95;;;18.30;99.90;;;;;;5071992;28;20210;-76
2022/04/14 11:33:25;;;;;;;11.05;4.95;;;18.80;99.90;;;;;;5073073;28;20210;-76
2022/04/14 11:35:53;;;;;;;9.30;4.85;;;18.90;99.90;;;;;;5057121;28;20215;-77
2022/04/14 11:38:52;;;;;;;8.95;4.78;;;19.00;99.90;;;;;;5069608;28;20283;-79
2022/04/14 11:41:32;;;;;;;8.63;4.63;;;19.10;99.90;;;;;;5067089;28;20268;-75
2022/04/14 11:44:01;;;;;;;5.55;3.55;;;18.90;99.90;;;;;;5067108;28;20211;-73
2022/04/14 11:46:29;;;;;;;10.48;4.43;;;19.10;99.90;;;;;;5068126;28;20210;-77
2022/04/14 11:48:57;;;;;;;6.35;3.60;;;19.20;99.90;;;;;;5069979;28;20782;-77
2022/04/14 11:51:26;;;;;;;8.43;3.45;;;19.20;99.90;;;;;;5071997;28;20637;-79
2022/04/14 11:53:56;;;;;;;8.20;3.72;;;19.20;99.90;;;;;;5070893;28;20694;-78
2022/04/14 11:56:23;;;;;;;11.18;3.95;;;19.40;99.90;;;;;;5069140;28;20236;-81
2022/04/14 11:58:50;;;;;;;6.32;3.67;;;19.00;99.90;;;;;;5071547;28;20634;-76
2022/04/14 12:01:17;;;;;;;7.38;3.35;;;18.90;99.90;;;;;;5072924;28;20207;-85
2022/04/14 12:03:45;;;;;;;6.38;2.78;;;19.00;99.90;;;;;;5071908;28;20198;-79
2022/04/14 12:06:16;;;;;;;5.25;2.63;;;19.30;99.90;;;;;;5072488;28;20630;-77
2022/04/14 12:08:54;;;;;;;3.78;2.92;;;19.50;99.90;;;;;;5072003;28;20226;-77
2022/04/14 12:11:22;;;;;;;3.80;3.10;;;19.70;99.90;;;;;;5071066;28;20575;-78
2022/04/14 12:13:49;;;;;;;6.45;2.97;;;19.60;99.90;;;;;;5071366;28;20206;-80
2022/04/14 12:16:16;;;;;;;8.55;2.45;;;19.60;99.90;;;;;;5072308;28;20302;-79
2022/04/14 12:18:51;;;;;;;4.20;2.22;;;19.50;99.90;;;;;;5058254;28;20241;-78
2022/04/14 12:21:20;;;;;;;6.13;2.30;;;19.70;99.90;;;;;;5072191;28;20205;-79
2022/04/14 12:23:49;;;;;;;8.43;3.35;;;19.70;99.90;;;;;;5071901;28;20271;-76
2022/04/14 12:26:17;;;;;;;7.13;3.10;;;19.80;99.90;;;;;;5072111;28;20206;-80
2022/04/14 12:28:47;;;;;;;5.30;2.38;;;19.90;99.90;;;;;;5071945;28;20321;-79
2022/04/14 12:31:16;;;;;;;8.20;3.28;;;19.90;99.90;;;;;;5071945;28;20209;-76
2022/04/14 12:33:55;;;;;;;5.15;3.10;;;20.20;99.90;;;;;;5071366;28;20217;-74
2022/04/14 12:36:32;;;;;;;7.88;3.58;;;20.30;99.90;;;;;;5061040;28;20238;-76
2022/04/14 12:39:01;;;;;;;6.18;2.15;;;20.00;99.90;;;;;;5071459;28;20643;-76
2022/04/14 12:41:34;;;;;;;3.10;2.50;;;20.10;99.90;;;;;;5069986;28;20666;-76
2022/04/14 12:44:01;;;;;;;3.88;3.30;;;20.10;99.90;;;;;;5069714;28;20210;-74
2022/04/14 12:46:30;;;;;;;10.10;2.95;;;20.40;99.90;;;;;;5071489;28;20298;-74
2022/04/14 12:49:01;;;;;;;7.88;2.75;;;20.30;99.90;;;;;;5070600;28;20229;-75
2022/04/14 12:51:30;;;;;;;7.82;2.97;;;20.50;99.90;;;;;;5071409;28;20206;-77